Time;durP1;ratioP1;P1;durP2;ratioP2;P2;SDS_P1;SDS_P2;PMS_P1;PMS_P2;Temp;Humidity;BMP_temperature;BMP_pressure;BME280_temperature;BME280_humidity;BME280_pressure;Samples;Min_cycle;Max_cycle;Signal;HPM_P1;HPM_P2
2023/05/21 00:01:33;;;;;;;13.32;9.25;;;;;;;16.49;64.64;98908.53;5053746;28;20021;-65
2023/05/21 00:03:58;;;;;;;9.88;8.73;;;;;;;16.46;64.49;98906.41;5049195;28;20083;-65
2023/05/21 00:06:24;;;;;;;12.80;9.60;;;;;;;16.42;64.97;98901.84;5053360;28;20061;-65
2023/05/21 00:08:49;;;;;;;11.10;8.75;;;;;;;16.37;64.64;98903.63;5053700;28;20021;-65
2023/05/21 00:11:14;;;;;;;10.95;9.00;;;;;;;16.34;64.67;98895.97;5053257;28;20072;-65
2023/05/21 00:13:40;;;;;;;12.05;9.68;;;;;;;16.32;65.04;98901.03;5053399;28;20049;-65
2023/05/21 00:16:06;;;;;;;14.27;9.90;;;;;;;16.31;64.67;98907.69;5053727;28;20351;-65
2023/05/21 00:18:33;;;;;;;11.68;9.48;;;;;;;16.29;64.78;98907.22;5053294;28;20116;-65
2023/05/21 00:20:59;;;;;;;13.98;10.23;;;;;;;16.28;64.93;98902.00;5053521;28;20500;-65
2023/05/21 00:23:25;;;;;;;14.65;10.90;;;;;;;16.27;65.04;98903.16;5053290;28;20028;-65
2023/05/21 00:25:51;;;;;;;14.55;10.50;;;;;;;16.25;65.44;98902.66;5048964;28;20120;-65
2023/05/21 00:28:17;;;;;;;11.70;9.80;;;;;;;16.21;65.28;98895.00;5050934;28;20491;-64
2023/05/21 00:30:42;;;;;;;11.90;10.07;;;;;;;16.21;65.29;98902.47;5053321;28;20104;-65
2023/05/21 00:33:09;;;;;;;11.75;9.55;;;;;;;16.19;65.23;98894.50;5053035;28;20370;-66
2023/05/21 00:35:34;;;;;;;12.95;10.10;;;;;;;16.18;65.64;98889.28;5050470;28;20025;-64
2023/05/21 00:38:00;;;;;;;11.02;9.43;;;;;;;16.17;65.41;98887.66;5053427;28;20505;-65
2023/05/21 00:40:26;;;;;;;15.63;9.93;;;;;;;16.17;65.88;98890.41;5052364;28;20041;-64
2023/05/21 00:42:55;;;;;;;12.73;10.60;;;;;;;16.16;65.94;98881.31;5052982;28;20040;-65
2023/05/21 00:45:22;;;;;;;;;;;;;;;16.12;65.63;98879.50;5053331;28;20085;-65
2023/05/21 00:47:53;;;;;;;14.20;10.32;;;;;;;16.08;65.79;98879.34;5053089;28;20377;-65
2023/05/21 00:50:20;;;;;;;15.98;10.82;;;;;;;16.05;65.71;98882.75;5052864;28;20519;-65
2023/05/21 00:52:47;;;;;;;12.32;9.60;;;;;;;16.04;65.68;98881.13;5052758;28;20028;-65
2023/05/21 00:55:13;;;;;;;14.48;9.98;;;;;;;16.02;65.84;98875.91;5053014;28;20664;-65
2023/05/21 00:57:40;;;;;;;12.73;10.65;;;;;;;16.03;66.08;98869.25;5052943;28;20017;-65
2023/05/21 01:00:07;;;;;;;12.63;10.15;;;;;;;16.03;66.36;98868.41;5052563;28;20040;-65
2023/05/21 01:02:35;;;;;;;14.35;10.60;;;;;;;16.02;66.25;98870.38;5052512;28;20028;-65
2023/05/21 01:05:03;;;;;;;14.55;10.23;;;;;;;16.03;66.47;98866.47;5052128;28;20029;-65
2023/05/21 01:07:29;;;;;;;12.38;10.63;;;;;;;16.04;66.60;98870.06;5052874;28;20017;-65
2023/05/21 01:09:54;;;;;;;14.40;10.40;;;;;;;16.05;66.36;98866.97;5052224;28;20462;-65
2023/05/21 01:12:22;;;;;;;12.38;10.40;;;;;;;16.06;66.51;98863.06;5052355;28;20051;-65
2023/05/21 01:14:48;;;;;;;14.90;10.60;;;;;;;16.09;66.50;98860.81;5052554;28;20380;-65
2023/05/21 01:17:15;;;;;;;13.40;11.02;;;;;;;16.09;66.41;98861.59;5052194;28;20462;-65
2023/05/21 01:19:43;;;;;;;13.75;10.73;;;;;;;16.10;66.48;98857.69;5051167;28;20593;-64
2023/05/21 01:22:11;;;;;;;14.90;11.50;;;;;;;16.11;66.63;98855.72;5051896;28;20065;-65
2023/05/21 01:24:36;;;;;;;15.70;11.10;;;;;;;16.13;66.45;98861.75;5051592;28;20035;-64
2023/05/21 01:27:05;;;;;;;13.48;10.85;;;;;;;16.15;66.60;98857.53;5052156;28;20029;-64
2023/05/21 01:29:30;;;;;;;13.75;11.20;;;;;;;16.17;66.54;98854.44;5052058;28;20044;-64
2023/05/21 01:32:23;;;;;;;14.70;11.00;;;;;;;16.16;66.63;98852.81;5051992;28;20458;-65
2023/05/21 01:35:11;;;;;;;16.30;10.95;;;;;;;16.18;66.74;98850.53;5052129;28;20473;-65
2023/05/21 01:37:47;;;;;;;13.80;10.63;;;;;;;16.17;66.36;98837.84;5051919;28;20029;-65
2023/05/21 01:40:28;;;;;;;12.63;10.57;;;;;;;16.16;66.53;98842.56;5048515;28;20053;-65
2023/05/21 01:42:54;;;;;;;13.95;10.68;;;;;;;16.14;66.33;98838.47;5052189;28;20028;-65
2023/05/21 01:45:22;;;;;;;15.13;11.63;;;;;;;16.14;66.62;98842.06;5051702;28;20021;-65
2023/05/21 01:47:50;;;;;;;13.18;10.07;;;;;;;16.12;67.06;98838.00;5050897;28;20094;-64
2023/05/21 01:50:17;;;;;;;14.10;11.05;;;;;;;16.12;66.90;98840.75;5051937;28;20029;-65
2023/05/21 01:52:57;;;;;;;12.88;11.00;;;;;;;16.06;66.70;98837.34;5051550;28;20049;-65
2023/05/21 01:55:25;;;;;;;13.98;10.95;;;;;;;16.03;66.88;98836.06;5050395;28;20116;-65
2023/05/21 01:57:52;;;;;;;13.88;11.45;;;;;;;16.00;66.71;98835.88;5051284;28;20060;-64
2023/05/21 02:00:19;;;;;;;13.80;10.73;;;;;;;15.97;66.82;98834.56;5051498;28;20071;-65
2023/05/21 02:02:45;;;;;;;16.77;11.43;;;;;;;15.95;66.67;98822.19;5051276;28;20024;-65
2023/05/21 02:05:10;;;;;;;16.55;11.90;;;;;;;15.90;66.76;98831.47;5051604;28;20128;-64
2023/05/21 02:07:36;;;;;;;15.32;12.98;;;;;;;15.87;66.51;98830.19;5051935;28;20021;-65
2023/05/21 02:10:02;;;;;;;15.38;12.90;;;;;;;15.85;66.40;98828.81;5052679;28;20377;-65
2023/05/21 02:12:28;;;;;;;15.02;12.50;;;;;;;15.82;66.45;98827.53;5035354;28;20029;-65
2023/05/21 02:14:55;;;;;;;15.10;11.95;;;;;;;15.81;67.00;98827.84;5046978;28;20029;-65
2023/05/21 02:17:21;;;;;;;15.95;12.15;;;;;;;15.78;66.62;98823.78;5046902;28;20029;-65
2023/05/21 02:19:47;;;;;;;13.73;11.77;;;;;;;15.75;66.63;98816.91;5049280;28;20037;-65
2023/05/21 02:22:12;;;;;;;13.70;11.50;;;;;;;15.72;66.72;98816.75;5035401;28;20048;-65
2023/05/21 02:24:38;;;;;;;16.50;12.45;;;;;;;15.67;66.79;98814.97;5051696;28;20536;-65
2023/05/21 02:27:05;;;;;;;13.88;11.57;;;;;;;15.67;66.92;98822.44;5048346;28;20554;-65
2023/05/21 02:29:30;;;;;;;14.55;11.63;;;;;;;15.63;66.60;98820.31;5046072;28;20143;-65
2023/05/21 02:31:56;;;;;;;14.50;11.93;;;;;;;15.62;66.79;98820.66;5051551;28;20048;-65
2023/05/21 02:34:21;;;;;;;16.50;11.70;;;;;;;15.60;66.92;98831.22;5048348;28;20465;-64
2023/05/21 02:36:47;;;;;;;13.95;10.70;;;;;;;15.57;66.77;98829.09;5044746;28;20379;-65
2023/05/21 02:39:14;;;;;;;14.13;11.63;;;;;;;15.54;67.05;98821.44;5047219;28;20041;-65
2023/05/21 02:41:40;;;;;;;14.77;11.52;;;;;;;15.53;66.73;98814.28;5052492;28;20036;-65
2023/05/21 02:44:05;;;;;;;16.75;12.05;;;;;;;15.50;67.13;98817.66;5051954;28;20029;-65
2023/05/21 02:46:31;;;;;;;15.90;11.25;;;;;;;15.48;66.97;98816.03;5052054;28;20082;-65
2023/05/21 02:48:56;;;;;;;13.38;10.90;;;;;;;15.44;67.05;98812.28;5052254;28;20032;-65
2023/05/21 02:51:21;;;;;;;15.40;11.88;;;;;;;15.43;66.83;98807.88;5051474;28;20496;-65
2023/05/21 02:53:47;;;;;;;12.80;11.48;;;;;;;15.42;66.92;98805.47;5044302;28;20045;-65
2023/05/21 02:56:12;;;;;;;14.93;12.15;;;;;;;15.41;67.06;98807.41;5033496;28;20037;-65
2023/05/21 02:58:38;;;;;;;13.52;11.05;;;;;;;15.39;67.53;98812.44;5043995;28;20397;-64
2023/05/21 03:01:03;;;;;;;13.65;11.52;;;;;;;15.39;67.56;98812.44;5047838;28;20466;-65
2023/05/21 03:03:28;;;;;;;14.63;11.20;;;;;;;15.39;67.43;98809.66;5035997;28;20025;-65
2023/05/21 03:05:54;;;;;;;15.52;11.75;;;;;;;15.38;67.71;98808.03;5045741;28;20025;-65
2023/05/21 03:08:20;;;;;;;14.68;10.85;;;;;;;15.37;67.24;98808.38;5039501;28;20045;-66
2023/05/21 03:10:45;;;;;;;14.70;10.80;;;;;;;15.35;67.42;98803.16;5043456;28;20023;-65
2023/05/21 03:13:11;;;;;;;15.38;11.30;;;;;;;15.34;67.56;98807.03;5051589;28;20389;-65
2023/05/21 03:15:37;;;;;;;14.52;11.13;;;;;;;15.31;67.88;98805.75;5052081;28;20029;-66
2023/05/21 03:18:03;;;;;;;14.65;10.63;;;;;;;15.31;67.52;98799.38;5041978;28;20036;-65
2023/05/21 03:20:28;;;;;;;15.10;11.73;;;;;;;15.31;68.08;98808.50;5034730;28;20029;-66
2023/05/21 03:22:53;;;;;;;15.35;10.45;;;;;;;15.30;68.02;98806.06;5051328;28;20029;-65
2023/05/21 03:25:20;;;;;;;13.93;11.00;;;;;;;15.30;67.77;98806.06;5049389;28;20791;-66
2023/05/21 03:27:46;;;;;;;12.90;10.55;;;;;;;15.32;68.26;98801.03;5048819;28;20029;-65
2023/05/21 03:30:12;;;;;;;15.73;10.20;;;;;;;15.33;68.46;98800.72;5051647;28;20029;-65
2023/05/21 03:32:40;;;;;;;14.93;10.65;;;;;;;15.35;68.16;98796.81;5050381;28;20025;-65
2023/05/21 03:35:05;;;;;;;13.55;9.25;;;;;;;15.38;68.36;98798.94;5033101;28;20079;-65
2023/05/21 03:37:31;;;;;;;12.18;9.95;;;;;;;15.39;68.72;98806.09;5037932;28;20020;-65
2023/05/21 03:39:56;;;;;;;14.25;10.25;;;;;;;15.40;68.79;98811.28;5048576;28;20045;-65
2023/05/21 03:42:22;;;;;;;13.70;10.52;;;;;;;15.41;68.41;98812.91;5049969;28;20033;-64
2023/05/21 03:44:47;;;;;;;13.30;10.65;;;;;;;15.44;68.64;98814.25;5051812;28;20388;-65
2023/05/21 03:47:12;;;;;;;12.88;10.60;;;;;;;15.44;68.58;98817.81;5047948;28;20043;-65
2023/05/21 03:49:38;;;;;;;14.35;11.07;;;;;;;15.47;69.29;98806.13;5031696;28;20025;-66
2023/05/21 03:52:03;;;;;;;16.85;12.00;;;;;;;15.49;69.15;98814.09;5046891;28;20032;-66
2023/05/21 03:54:29;;;;;;;14.43;12.43;;;;;;;15.51;69.25;98808.25;5051320;28;20040;-65
2023/05/21 03:56:54;;;;;;;15.82;11.82;;;;;;;15.55;69.34;98812.00;5034242;28;20057;-65
2023/05/21 03:59:20;;;;;;;17.05;12.95;;;;;;;15.56;69.28;98806.13;5045242;28;20500;-65
2023/05/21 04:01:45;;;;;;;14.52;12.13;;;;;;;15.60;69.56;98814.63;5051223;28;20037;-65
2023/05/21 04:04:11;;;;;;;14.82;11.35;;;;;;;15.61;69.58;98811.53;5038996;28;20026;-66
2023/05/21 04:06:37;;;;;;;14.57;12.07;;;;;;;15.64;69.56;98801.78;5046598;28;20033;-65
2023/05/21 04:09:03;;;;;;;14.82;11.52;;;;;;;15.64;69.83;98807.31;5040815;28;20044;-66
2023/05/21 04:11:30;;;;;;;13.82;10.65;;;;;;;15.64;69.58;98804.56;5042412;28;20025;-66
2023/05/21 04:13:55;;;;;;;14.93;10.85;;;;;;;15.65;69.63;98813.66;5041406;28;20079;-66
2023/05/21 04:16:21;;;;;;;15.07;11.55;;;;;;;15.65;69.78;98813.66;5046560;28;20425;-66
2023/05/21 04:18:46;;;;;;;15.43;11.68;;;;;;;15.66;70.12;98816.09;5050153;28;20121;-67
2023/05/21 04:21:12;;;;;;;16.63;12.02;;;;;;;15.68;69.90;98824.06;5053947;28;20090;-65
2023/05/21 04:23:38;;;;;;;17.02;11.63;;;;;;;15.69;69.97;98820.97;5041920;28;20061;-65
2023/05/21 04:26:03;;;;;;;13.45;11.32;;;;;;;15.71;69.78;98821.47;5038848;28;20055;-65
2023/05/21 04:28:29;;;;;;;13.68;11.23;;;;;;;15.73;69.80;98824.72;5041325;28;20044;-65
2023/05/21 04:30:57;;;;;;;13.32;10.65;;;;;;;15.75;70.05;98816.91;5050797;28;20060;-65
2023/05/21 04:33:23;;;;;;;17.77;11.20;;;;;;;15.77;69.92;98817.41;5053887;28;20033;-65
2023/05/21 04:35:52;;;;;;;14.32;11.90;;;;;;;15.79;70.51;98828.16;5046324;28;20025;-65
2023/05/21 04:38:18;;;;;;;14.43;11.82;;;;;;;15.81;70.20;98814.00;5050539;28;20033;-65
2023/05/21 04:40:45;;;;;;;13.18;10.70;;;;;;;15.82;70.27;98827.53;5053910;28;20079;-66
2023/05/21 04:43:11;;;;;;;15.68;11.05;;;;;;;15.82;70.21;98824.75;5036887;28;20056;-65
2023/05/21 04:45:36;;;;;;;14.75;11.38;;;;;;;15.86;70.45;98822.16;5035780;28;20441;-65
2023/05/21 04:48:02;;;;;;;18.30;11.52;;;;;;;15.87;70.63;98827.41;5044528;28;20037;-64
2023/05/21 04:50:29;;;;;;;12.73;10.55;;;;;;;15.91;70.29;98819.25;5051872;28;20032;-65
2023/05/21 04:52:55;;;;;;;14.30;10.98;;;;;;;15.93;70.57;98825.28;5042395;28;20416;-65
2023/05/21 04:55:21;;;;;;;14.25;11.40;;;;;;;15.95;70.28;98834.09;5041417;28;20113;-66
2023/05/21 04:57:47;;;;;;;16.00;11.35;;;;;;;15.98;70.40;98833.44;5048624;28;20033;-66
2023/05/21 05:00:12;;;;;;;14.30;11.48;;;;;;;15.99;70.76;98834.25;5043171;28;20097;-66
2023/05/21 05:02:38;;;;;;;13.95;10.95;;;;;;;16.03;70.22;98840.75;5054087;28;20037;-65
2023/05/21 05:05:04;;;;;;;14.93;11.00;;;;;;;16.06;70.79;98837.34;5040503;28;20040;-66
2023/05/21 05:07:30;;;;;;;12.95;10.63;;;;;;;16.11;70.50;98837.19;5053602;28;20116;-66
2023/05/21 05:09:55;;;;;;;14.23;10.73;;;;;;;16.17;70.80;98835.91;5050187;28;20156;-66
2023/05/21 05:12:20;;;;;;;17.65;11.82;;;;;;;16.19;70.59;98836.38;5047283;28;20024;-65
2023/05/21 05:14:46;;;;;;;15.23;11.43;;;;;;;16.24;70.32;98838.16;5051098;28;20055;-66
2023/05/21 05:17:14;;;;;;;14.23;10.55;;;;;;;16.27;70.46;98831.19;5052763;28;20025;-66
2023/05/21 05:19:39;;;;;;;14.90;10.48;;;;;;;16.32;70.36;98831.84;5052936;28;20036;-66
2023/05/21 05:22:06;;;;;;;14.32;10.80;;;;;;;16.35;70.55;98830.34;5052811;28;20393;-66
2023/05/21 05:24:31;;;;;;;13.55;10.98;;;;;;;16.40;70.79;98834.94;5053181;28;20025;-66
2023/05/21 05:26:56;;;;;;;14.95;11.10;;;;;;;16.44;70.35;98836.72;5051640;28;20418;-66
2023/05/21 05:29:22;;;;;;;15.48;10.80;;;;;;;16.49;70.33;98841.28;5051506;28;20036;-66
2023/05/21 05:31:47;;;;;;;14.30;10.30;;;;;;;16.53;70.57;98845.00;5051641;28;20489;-66
2023/05/21 05:34:13;;;;;;;13.52;10.38;;;;;;;16.59;70.78;98842.91;5048608;28;20056;-66
2023/05/21 05:36:38;;;;;;;14.15;10.00;;;;;;;16.63;70.48;98839.13;5051162;28;20028;-66
2023/05/21 05:39:04;;;;;;;14.88;11.30;;;;;;;16.68;70.24;98840.94;5050701;28;20044;-65
2023/05/21 05:41:29;;;;;;;14.10;10.00;;;;;;;16.74;70.66;98836.84;5050618;28;20029;-66
2023/05/21 05:43:55;;;;;;;15.57;10.25;;;;;;;16.80;70.34;98838.28;5051212;28;20029;-66
2023/05/21 05:46:20;;;;;;;13.13;9.52;;;;;;;16.88;70.53;98841.38;5050890;28;20044;-66
2023/05/21 05:48:46;;;;;;;11.73;9.05;;;;;;;16.93;70.20;98836.47;5044502;28;20572;-67
2023/05/21 05:51:11;;;;;;;12.90;9.82;;;;;;;17.02;70.36;98830.97;5047414;28;20033;-66
2023/05/21 05:53:37;;;;;;;12.55;9.68;;;;;;;17.08;70.12;98837.97;5034152;28;20028;-66
2023/05/21 05:56:02;;;;;;;12.25;9.40;;;;;;;17.11;70.06;98837.28;5033018;28;20051;-66
2023/05/21 05:58:28;;;;;;;11.75;9.15;;;;;;;17.18;69.92;98833.19;5046616;28;20033;-66
2023/05/21 06:00:54;;;;;;;10.80;9.27;;;;;;;17.22;70.04;98834.16;5050597;28;20473;-67
2023/05/21 06:03:19;;;;;;;14.52;8.95;;;;;;;17.28;69.88;98835.59;5051711;28;20037;-66
2023/05/21 06:05:45;;;;;;;11.88;9.18;;;;;;;17.35;70.05;98824.81;5051613;28;20106;-66
2023/05/21 06:08:10;;;;;;;12.30;9.25;;;;;;;17.41;70.11;98829.03;5052489;28;20038;-66
2023/05/21 06:10:36;;;;;;;11.15;8.18;;;;;;;17.50;70.12;98828.19;5052847;28;20111;-66
2023/05/21 06:13:01;;;;;;;11.63;9.15;;;;;;;17.56;69.86;98822.09;5043321;28;20043;-66
2023/05/21 06:15:27;;;;;;;9.88;8.75;;;;;;;17.63;69.74;98829.09;5049129;28;20104;-66
2023/05/21 06:17:52;;;;;;;10.70;8.75;;;;;;;17.68;69.90;98821.38;5041763;28;20826;-66
2023/05/21 06:20:17;;;;;;;12.80;8.57;;;;;;;17.74;69.73;98816.44;5046402;28;20033;-66
2023/05/21 06:22:43;;;;;;;13.10;8.57;;;;;;;17.81;69.57;98825.06;5051326;28;20548;-66
2023/05/21 06:25:10;;;;;;;12.18;8.40;;;;;;;17.86;69.49;98819.31;5051480;28;20040;-66
2023/05/21 06:27:36;;;;;;;11.55;8.27;;;;;;;17.92;69.21;98813.56;5051537;28;20028;-66
2023/05/21 06:30:02;;;;;;;13.75;8.20;;;;;;;17.97;69.24;98816.94;5051437;28;20407;-67
2023/05/21 06:32:27;;;;;;;9.75;7.93;;;;;;;18.00;68.99;98813.53;5051698;28;20033;-66
2023/05/21 06:34:53;;;;;;;10.30;8.05;;;;;;;18.04;68.92;98808.13;5047212;28;20028;-66
2023/05/21 06:37:22;;;;;;;8.88;7.40;;;;;;;18.07;68.76;98803.84;5043998;28;20490;-66
2023/05/21 06:39:47;;;;;;;9.00;7.40;;;;;;;18.13;68.78;98806.13;5034242;28;20461;-66
2023/05/21 06:42:13;;;;;;;9.82;7.07;;;;;;;18.19;68.53;98803.09;5035957;28;20100;-66
2023/05/21 06:44:38;;;;;;;8.98;7.28;;;;;;;18.24;68.72;98795.41;5041894;28;20025;-66
2023/05/21 06:47:04;;;;;;;9.02;7.22;;;;;;;18.30;68.64;98793.22;5033127;28;20036;-66
2023/05/21 06:49:31;;;;;;;9.25;7.18;;;;;;;18.39;68.33;98796.75;5036002;28;20029;-66
2023/05/21 06:51:56;;;;;;;9.95;7.00;;;;;;;18.49;68.53;98808.59;5046046;28;20029;-66
2023/05/21 06:54:21;;;;;;;9.00;7.15;;;;;;;18.56;68.33;98800.50;5052085;28;20581;-67
2023/05/21 06:56:47;;;;;;;9.40;7.40;;;;;;;18.65;68.45;98806.00;5045554;28;20047;-66
2023/05/21 06:59:12;;;;;;;8.20;6.68;;;;;;;18.69;68.22;98796.63;5032868;28;20390;-66
2023/05/21 07:01:41;;;;;;;8.52;6.85;;;;;;;18.78;68.08;98796.53;5036152;28;20044;-67
2023/05/21 07:04:07;;;;;;;8.23;7.38;;;;;;;18.85;67.99;98793.19;5046252;28;20025;-67
2023/05/21 07:06:33;;;;;;;9.20;7.05;;;;;;;18.92;68.23;98789.84;5042138;28;20021;-67
2023/05/21 07:08:59;;;;;;;9.95;7.18;;;;;;;19.00;67.84;98786.19;5038348;28;20029;-67
2023/05/21 07:11:27;;;;;;;7.90;6.90;;;;;;;19.10;67.88;98790.47;5050218;28;20032;-67
2023/05/21 07:13:53;;;;;;;9.63;6.82;;;;;;;19.18;67.87;98789.56;5049430;28;20029;-67
2023/05/21 07:16:19;;;;;;;8.32;6.93;;;;;;;19.24;67.44;98787.38;5049034;28;20041;-67
2023/05/21 07:18:44;;;;;;;8.85;6.68;;;;;;;19.30;67.43;98791.53;5045856;28;20017;-67
2023/05/21 07:21:10;;;;;;;7.22;6.03;;;;;;;19.37;67.29;98797.34;5038330;28;20115;-67
2023/05/21 07:23:35;;;;;;;9.27;6.72;;;;;;;19.45;67.09;98798.38;5031997;28;20028;-67
2023/05/21 07:26:00;;;;;;;6.80;5.82;;;;;;;19.54;67.16;98801.06;5042123;28;20111;-67
2023/05/21 07:28:26;;;;;;;8.63;6.47;;;;;;;19.61;67.01;98792.94;5031761;28;20088;-67
2023/05/21 07:30:51;;;;;;;8.45;6.47;;;;;;;19.69;66.98;98791.22;5035517;28;20025;-66
2023/05/21 07:33:19;;;;;;;7.35;6.28;;;;;;;19.76;66.88;98791.44;5048720;28;20100;-67
2023/05/21 07:35:44;;;;;;;9.07;6.18;;;;;;;19.84;66.50;98790.47;5046690;28;20032;-66
2023/05/21 07:38:10;;;;;;;8.00;6.00;;;;;;;19.93;66.32;98791.19;5037981;28;20026;-67
2023/05/21 07:40:35;;;;;;;7.75;5.75;;;;;;;20.03;66.35;98792.66;5030425;28;20033;-67
2023/05/21 07:43:01;;;;;;;7.65;5.85;;;;;;;20.14;66.09;98787.44;5033569;28;20394;-67
2023/05/21 07:45:26;;;;;;;9.63;6.50;;;;;;;20.23;65.96;98790.88;5031951;28;20478;-68
2023/05/21 07:47:52;;;;;;;9.10;6.18;;;;;;;20.30;65.98;98781.09;5051400;28;20025;-66
2023/05/21 07:50:17;;;;;;;7.13;6.22;;;;;;;20.36;65.62;98774.13;5052074;28;20029;-66
2023/05/21 07:52:42;;;;;;;8.18;6.07;;;;;;;20.46;65.49;98772.81;5052669;28;20112;-66
2023/05/21 07:55:08;;;;;;;8.65;5.57;;;;;;;20.54;65.42;98782.97;5052768;28;20641;-66
2023/05/21 07:57:34;;;;;;;7.88;5.38;;;;;;;20.59;64.83;98779.94;5048545;28;20047;-66
2023/05/21 08:00:00;;;;;;;9.50;5.63;;;;;;;20.63;64.55;98782.81;5047030;28;20463;-66
2023/05/21 08:02:25;;;;;;;7.68;5.40;;;;;;;20.70;64.62;98782.22;5050066;28;20025;-66
2023/05/21 08:04:51;;;;;;;7.28;5.22;;;;;;;20.75;64.30;98779.97;5045485;28;20513;-66
2023/05/21 08:07:18;;;;;;;8.10;5.10;;;;;;;20.85;64.45;98787.03;5042250;28;20035;-66
2023/05/21 08:09:44;;;;;;;10.52;5.38;;;;;;;20.94;64.16;98779.31;5051563;28;20079;-66
2023/05/21 08:12:13;;;;;;;6.88;4.97;;;;;;;21.02;63.96;98774.72;5052426;28;20033;-65
2023/05/21 08:14:38;;;;;;;8.52;5.53;;;;;;;21.07;63.83;98776.44;5046783;28;20482;-66
2023/05/21 08:17:03;;;;;;;9.13;5.63;;;;;;;21.15;63.53;98786.63;5044339;28;20037;-66
2023/05/21 08:19:29;;;;;;;13.55;9.05;;;;;;;21.22;63.54;98781.19;5054160;28;20099;-66
2023/05/21 08:21:55;;;;;;;9.77;6.20;;;;;;;21.31;63.40;98783.84;5048205;28;20090;-66
2023/05/21 08:24:20;;;;;;;6.60;5.15;;;;;;;21.37;63.22;98776.81;5038072;28;20033;-66
2023/05/21 08:26:48;;;;;;;6.72;5.35;;;;;;;21.44;62.76;98780.91;5037812;28;20040;-67
2023/05/21 08:29:13;;;;;;;7.28;6.03;;;;;;;21.50;62.44;98782.28;5053088;28;20063;-66
2023/05/21 08:31:39;;;;;;;7.55;6.00;;;;;;;21.56;62.23;98780.81;5049146;28;20049;-66
2023/05/21 08:34:04;;;;;;;7.65;4.75;;;;;;;21.63;61.85;98775.44;5041803;28;20056;-66
2023/05/21 08:36:30;;;;;;;7.18;5.28;;;;;;;21.70;61.73;98780.38;5049513;28;20470;-65
2023/05/21 08:38:55;;;;;;;10.05;7.75;;;;;;;21.75;61.32;98771.72;5056732;28;20064;-67
2023/05/21 08:41:22;;;;;;;9.02;5.00;;;;;;;21.83;61.19;98778.28;5054142;28;20432;-66
2023/05/21 08:43:57;;;;;;;6.40;4.80;;;;;;;21.91;60.86;98768.88;5053904;28;20025;-66
2023/05/21 08:46:23;;;;;;;6.55;5.00;;;;;;;21.95;60.32;98772.56;5071892;28;20495;-67
2023/05/21 08:48:53;;;;;;;9.80;4.40;;;;;;;22.00;60.14;98766.69;5060506;28;20064;-67
2023/05/21 08:51:20;;;;;;;5.13;4.10;;;;;;;22.07;59.98;98768.81;5054027;28;20029;-66
2023/05/21 08:53:45;;;;;;;8.70;4.40;;;;;;;22.14;59.80;98768.19;5053717;28;20048;-67
2023/05/21 08:56:11;;;;;;;6.30;4.80;;;;;;;22.20;59.66;98769.53;5053781;28;20028;-65
2023/05/21 08:58:41;;;;;;;6.72;4.55;;;;;;;22.27;59.15;98761.25;5053195;28;20017;-66
2023/05/21 09:01:06;;;;;;;;;;;;;;;22.33;59.18;98756.22;5054394;28;20033;-66
2023/05/21 09:03:32;;;;;;;6.93;4.13;;;;;;;22.39;58.70;98759.50;5053470;28;20374;-66
2023/05/21 09:05:59;;;;;;;6.75;5.28;;;;;;;22.45;58.18;98760.84;5053630;28;20090;-65
2023/05/21 09:08:30;;;;;;;6.55;4.30;;;;;;;22.48;57.99;98760.13;5053649;28;20024;-66
2023/05/21 09:10:55;;;;;;;7.45;4.35;;;;;;;22.54;58.01;98758.66;5053539;28;20488;-65
2023/05/21 09:13:20;;;;;;;6.20;4.30;;;;;;;22.59;57.61;98758.34;5053224;28;20033;-65
2023/05/21 09:15:46;;;;;;;5.55;4.38;;;;;;;22.66;57.26;98756.84;5035408;28;20708;-66
2023/05/21 09:18:12;;;;;;;7.82;3.90;;;;;;;22.71;56.85;98756.53;5053015;28;20538;-67
2023/05/21 09:20:38;;;;;;;8.05;4.25;;;;;;;22.79;57.10;98749.13;5052906;28;20146;-67
2023/05/21 09:23:09;;;;;;;7.95;4.63;;;;;;;22.83;56.92;98753.59;5053000;28;20074;-66
2023/05/21 09:25:36;;;;;;;7.75;4.43;;;;;;;22.88;56.73;98756.06;5052124;28;20107;-66
2023/05/21 09:28:02;;;;;;;8.63;5.47;;;;;;;22.95;56.48;98754.59;5052830;28;20028;-67
2023/05/21 09:30:27;;;;;;;6.43;4.00;;;;;;;23.00;56.19;98751.50;5053714;28;20025;-66
2023/05/21 09:32:56;;;;;;;7.43;4.00;;;;;;;23.05;56.16;98746.38;5053730;28;20397;-68
2023/05/21 09:35:22;;;;;;;4.40;4.00;;;;;;;23.13;55.82;98755.69;5052921;28;20393;-67
2023/05/21 09:37:51;;;;;;;4.90;3.67;;;;;;;23.19;55.92;98748.59;5034304;28;20029;-67
2023/05/21 09:40:21;;;;;;;7.20;3.80;;;;;;;23.25;55.77;98748.31;5046724;28;20052;-67
2023/05/21 09:42:46;;;;;;;7.28;4.63;;;;;;;23.32;55.72;98740.03;5033619;28;20396;-67
2023/05/21 09:45:16;;;;;;;5.63;3.63;;;;;;;23.40;55.60;98749.34;5033182;28;20033;-68
2023/05/21 09:47:43;;;;;;;5.32;3.65;;;;;;;23.43;55.05;98743.00;5045387;28;20060;-67
2023/05/21 09:50:10;;;;;;;6.13;3.83;;;;;;;23.45;54.86;98749.81;5053017;28;20025;-67
2023/05/21 09:52:36;;;;;;;6.75;3.97;;;;;;;23.47;54.24;98750.25;5051933;28;20040;-68
2023/05/21 09:55:09;;;;;;;6.20;3.80;;;;;;;23.49;54.37;98749.91;5050388;28;20053;-67
2023/05/21 09:57:40;;;;;;;6.35;3.63;;;;;;;23.53;53.99;98736.78;5049725;28;20032;-67
2023/05/21 10:00:07;;;;;;;5.88;3.30;;;;;;;23.58;54.10;98739.25;5050412;28;20029;-67
2023/05/21 10:02:36;;;;;;;4.13;3.63;;;;;;;23.63;54.07;98738.94;5051849;28;20036;-67
2023/05/21 10:05:07;;;;;;;7.35;5.55;;;;;;;23.70;53.75;98737.38;5054073;28;20025;-67
2023/05/21 10:07:35;;;;;;;7.38;3.67;;;;;;;23.76;53.99;98730.28;5062025;28;20530;-67
2023/05/21 10:10:03;;;;;;;5.50;3.60;;;;;;;23.82;53.63;98734.38;5059432;28;20033;-65
2023/05/21 10:12:30;;;;;;;5.78;3.50;;;;;;;23.86;53.48;98728.81;5059731;28;20397;-66
2023/05/21 10:15:00;;;;;;;7.10;4.18;;;;;;;23.93;53.96;98726.94;5048020;28;20096;-66
2023/05/21 10:17:35;;;;;;;6.75;3.45;;;;;;;23.99;53.28;98723.81;5034839;28;20033;-66
2023/05/21 10:20:02;;;;;;;7.85;3.67;;;;;;;24.04;53.06;98724.28;5044086;28;20040;-69
2023/05/21 10:22:28;;;;;;;5.40;3.28;;;;;;;24.10;52.89;98726.75;5050482;28;20035;-70
2023/05/21 10:24:53;;;;;;;4.95;3.22;;;;;;;24.14;52.89;98722.00;5046640;28;20481;-67
2023/05/21 10:27:19;;;;;;;4.53;3.15;;;;;;;24.21;52.61;98716.50;5049636;28;20155;-66
2023/05/21 10:29:45;;;;;;;6.90;3.75;;;;;;;24.23;52.06;98706.50;5050152;28;20028;-67
2023/05/21 10:32:15;;;;;;;4.43;3.13;;;;;;;24.28;52.08;98710.16;5050654;28;20040;-67
2023/05/21 10:34:42;;;;;;;6.63;3.45;;;;;;;24.33;51.79;98707.81;5048880;28;20028;-66
2023/05/21 10:37:09;;;;;;;7.63;4.25;;;;;;;24.38;52.04;98704.66;5049212;28;20431;-67
2023/05/21 10:39:35;;;;;;;7.40;4.82;;;;;;;24.42;51.68;98707.53;5045491;28;20144;-66
2023/05/21 10:42:21;;;;;;;4.93;2.97;;;;;;;24.47;51.74;98709.97;5047988;28;20047;-67
2023/05/21 10:45:01;;;;;;;4.88;2.95;;;;;;;24.51;51.34;98710.81;5043772;28;20041;-66
2023/05/21 10:47:42;;;;;;;5.35;3.38;;;;;;;24.55;51.18;98710.03;5045766;28;20045;-67
2023/05/21 10:50:29;;;;;;;7.72;4.18;;;;;;;24.58;50.99;98712.06;5047602;28;20042;-67
2023/05/21 10:53:20;;;;;;;5.20;3.22;;;;;;;24.57;51.26;98705.69;5048464;28;20054;-66
2023/05/21 10:56:06;;;;;;;4.80;2.95;;;;;;;24.63;50.77;98703.31;5045004;28;20025;-67
2023/05/21 10:58:50;;;;;;;3.42;2.78;;;;;;;24.66;50.31;98697.72;5044217;28;20473;-67
2023/05/21 11:01:18;;;;;;;4.60;2.72;;;;;;;24.71;50.46;98696.59;5045120;28;20078;-67
2023/05/21 11:03:45;;;;;;;4.18;2.88;;;;;;;24.81;50.27;98695.91;5044190;28;20449;-67
2023/05/21 11:06:21;;;;;;;3.53;2.85;;;;;;;24.85;50.12;98700.75;5048903;28;20059;-67
2023/05/21 11:08:47;;;;;;;5.65;2.80;;;;;;;24.91;50.00;98704.81;5045874;28;20025;-68
2023/05/21 11:11:13;;;;;;;5.13;2.80;;;;;;;24.95;49.77;98706.47;5042875;28;20033;-67
2023/05/21 11:13:50;;;;;;;3.17;2.20;;;;;;;24.99;49.01;98702.88;5045527;28;20477;-67
2023/05/21 11:16:16;;;;;;;3.33;2.70;;;;;;;25.01;48.41;98697.69;5046741;28;20032;-66
2023/05/21 11:18:41;;;;;;;4.28;2.30;;;;;;;25.03;48.63;98693.28;5044994;28;20037;-67
2023/05/21 11:21:11;;;;;;;4.35;2.90;;;;;;;25.10;48.48;98690.53;5048278;28;20032;-67
2023/05/21 11:24:02;;;;;;;4.20;2.50;;;;;;;25.18;48.81;98697.00;5054720;28;20067;-67
2023/05/21 11:26:51;;;;;;;4.43;2.58;;;;;;;25.26;48.26;98690.25;5040525;28;20071;-66